Terminal Aerodrome Forecast
Issued by NWS Sterling, VA

Home | Current Version | Previous Version | Text Only | Print | Product List | Glossary On
Versions: 1 2 3 4 5 6 7 8 9 10 11 12 13 14
000
FTUS41 KLWX 211100
TAFCHO
TAF
KCHO 211139Z 2112/2212 VRB03KT P6SM SCT060 BKN120
     FM211400 26005KT P6SM BKN090
     FM211800 25005KT 6SM -SHRA BKN050
     FM212100 28005KT P6SM BKN045
     FM220500 34006KT P6SM BKN050
     FM220900 34007KT P6SM BKN030=

USA.gov is the U.S. government's official web portal to all federal, state and local government web resources and services.